Glew, Argentina
Current Conditions -  °F | °C
As of 3:00 PM on Monday 20 Oct 2014 (Local Time) from SAEZ Reporting Station
Clear Clear  
Wind Chill: 75°   Ceiling: Unl
Heat Index: 75°   Visibility: 6mi
Dew Point: 52°   Wind: 2mph
Humidity: 44%   Direction: NA
Pressure: 30.12"   Gusts: NA
Location:  34.88°S, 58.38°W
Report Text: SAEZ 201800Z VRB02KT CAVOK 24/11 Q1020
Loading
Personal Weather Stations






























Interactive Weather Map
Tropical Storm Tracking
New forecast layout! Learn more

10-Day Weather Forecast

Advertisements
Track Severe Weather on mobile